sensor_id;sensor_type;location;lat;lon;timestamp;P1;durP1;ratioP1;P2;durP2;ratioP2
62724;SDS011;49026;52.600;4.694;2022-09-24T00:00:42;71.55;;;23.50;;
62724;SDS011;49026;52.600;4.694;2022-09-24T00:03:17;67.50;;;22.48;;
62724;SDS011;49026;52.600;4.694;2022-09-24T00:05:44;56.25;;;20.95;;
62724;SDS011;49026;52.600;4.694;2022-09-24T00:08:13;83.45;;;24.35;;
62724;SDS011;49026;52.600;4.694;2022-09-24T00:10:40;82.90;;;24.48;;
62724;SDS011;49026;52.600;4.694;2022-09-24T00:13:07;98.07;;;26.20;;
62724;SDS011;49026;52.600;4.694;2022-09-24T00:15:39;96.80;;;25.67;;
62724;SDS011;49026;52.600;4.694;2022-09-24T00:18:09;98.10;;;26.33;;
62724;SDS011;49026;52.600;4.694;2022-09-24T00:20:36;96.97;;;27.30;;
62724;SDS011;49026;52.600;4.694;2022-09-24T00:23:02;104.05;;;24.90;;
62724;SDS011;49026;52.600;4.694;2022-09-24T00:25:28;109.90;;;27.10;;
62724;SDS011;49026;52.600;4.694;2022-09-24T00:28:12;107.25;;;27.67;;
62724;SDS011;49026;52.600;4.694;2022-09-24T00:30:39;95.97;;;26.30;;
62724;SDS011;49026;52.600;4.694;2022-09-24T00:33:07;113.10;;;26.42;;
62724;SDS011;49026;52.600;4.694;2022-09-24T00:35:34;94.68;;;25.67;;
62724;SDS011;49026;52.600;4.694;2022-09-24T00:38:05;110.90;;;28.15;;
62724;SDS011;49026;52.600;4.694;2022-09-24T00:40:32;103.28;;;28.00;;
62724;SDS011;49026;52.600;4.694;2022-09-24T00:43:01;101.88;;;28.02;;
62724;SDS011;49026;52.600;4.694;2022-09-24T00:45:27;125.85;;;31.15;;
62724;SDS011;49026;52.600;4.694;2022-09-24T00:47:55;104.80;;;25.90;;
62724;SDS011;49026;52.600;4.694;2022-09-24T00:53:05;126.63;;;30.88;;
62724;SDS011;49026;52.600;4.694;2022-09-24T00:55:34;123.47;;;30.08;;
62724;SDS011;49026;52.600;4.694;2022-09-24T00:58:02;126.72;;;32.25;;
62724;SDS011;49026;52.600;4.694;2022-09-24T01:00:30;145.43;;;31.90;;
62724;SDS011;49026;52.600;4.694;2022-09-24T01:03:00;148.52;;;31.70;;
62724;SDS011;49026;52.600;4.694;2022-09-24T01:05:29;173.10;;;35.60;;
62724;SDS011;49026;52.600;4.694;2022-09-24T01:07:55;160.80;;;34.40;;
62724;SDS011;49026;52.600;4.694;2022-09-24T01:10:25;145.60;;;33.85;;
62724;SDS011;49026;52.600;4.694;2022-09-24T01:13:18;158.43;;;32.90;;
62724;SDS011;49026;52.600;4.694;2022-09-24T01:15:53;170.60;;;33.67;;
62724;SDS011;49026;52.600;4.694;2022-09-24T01:19:42;168.48;;;32.85;;
62724;SDS011;49026;52.600;4.694;2022-09-24T01:21:48;171.30;;;34.13;;
62724;SDS011;49026;52.600;4.694;2022-09-24T01:27:07;180.88;;;33.17;;
62724;SDS011;49026;52.600;4.694;2022-09-24T01:29:44;176.80;;;34.03;;
62724;SDS011;49026;52.600;4.694;2022-09-24T01:32:18;187.50;;;34.83;;
62724;SDS011;49026;52.600;4.694;2022-09-24T01:34:56;193.68;;;35.38;;
62724;SDS011;49026;52.600;4.694;2022-09-24T01:37:26;199.48;;;34.78;;
62724;SDS011;49026;52.600;4.694;2022-09-24T01:39:55;188.52;;;32.42;;
62724;SDS011;49026;52.600;4.694;2022-09-24T01:42:22;178.00;;;34.03;;
62724;SDS011;49026;52.600;4.694;2022-09-24T01:44:51;209.52;;;34.45;;
62724;SDS011;49026;52.600;4.694;2022-09-24T01:47:19;191.32;;;34.47;;
62724;SDS011;49026;52.600;4.694;2022-09-24T01:49:50;170.43;;;31.65;;
62724;SDS011;49026;52.600;4.694;2022-09-24T01:52:18;201.20;;;34.35;;
62724;SDS011;49026;52.600;4.694;2022-09-24T01:55:00;169.32;;;31.77;;
62724;SDS011;49026;52.600;4.694;2022-09-24T01:57:33;41.92;;;11.35;;
62724;SDS011;49026;52.600;4.694;2022-09-24T02:02:31;43.80;;;13.70;;
62724;SDS011;49026;52.600;4.694;2022-09-24T02:05:05;34.63;;;11.82;;
62724;SDS011;49026;52.600;4.694;2022-09-24T02:07:54;27.30;;;8.90;;
62724;SDS011;49026;52.600;4.694;2022-09-24T02:13:25;15.55;;;7.50;;
62724;SDS011;49026;52.600;4.694;2022-09-24T02:15:57;27.17;;;8.85;;
62724;SDS011;49026;52.600;4.694;2022-09-24T02:18:27;32.10;;;8.90;;
62724;SDS011;49026;52.600;4.694;2022-09-24T02:20:57;28.65;;;7.95;;
62724;SDS011;49026;52.600;4.694;2022-09-24T02:23:27;19.17;;;5.90;;
62724;SDS011;49026;52.600;4.694;2022-09-24T02:25:59;15.82;;;4.78;;
62724;SDS011;49026;52.600;4.694;2022-09-24T02:28:28;19.48;;;4.35;;
62724;SDS011;49026;52.600;4.694;2022-09-24T02:30:58;15.45;;;3.95;;
62724;SDS011;49026;52.600;4.694;2022-09-24T02:33:28;11.95;;;2.58;;
62724;SDS011;49026;52.600;4.694;2022-09-24T02:36:14;10.90;;;2.35;;
62724;SDS011;49026;52.600;4.694;2022-09-24T02:38:41;7.72;;;1.73;;
62724;SDS011;49026;52.600;4.694;2022-09-24T02:41:07;10.50;;;1.73;;
62724;SDS011;49026;52.600;4.694;2022-09-24T02:43:35;11.65;;;2.20;;
62724;SDS011;49026;52.600;4.694;2022-09-24T02:46:00;10.27;;;2.10;;
62724;SDS011;49026;52.600;4.694;2022-09-24T02:48:26;17.38;;;2.60;;
62724;SDS011;49026;52.600;4.694;2022-09-24T02:50:51;10.80;;;1.70;;
62724;SDS011;49026;52.600;4.694;2022-09-24T02:53:19;10.63;;;2.03;;
62724;SDS011;49026;52.600;4.694;2022-09-24T02:55:44;5.40;;;1.58;;
62724;SDS011;49026;52.600;4.694;2022-09-24T02:58:09;14.63;;;2.40;;
62724;SDS011;49026;52.600;4.694;2022-09-24T03:00:35;6.13;;;1.70;;
62724;SDS011;49026;52.600;4.694;2022-09-24T03:03:03;15.68;;;2.72;;
62724;SDS011;49026;52.600;4.694;2022-09-24T03:05:28;6.57;;;2.28;;
62724;SDS011;49026;52.600;4.694;2022-09-24T03:07:55;12.98;;;2.00;;
62724;SDS011;49026;52.600;4.694;2022-09-24T03:10:22;7.90;;;2.17;;
62724;SDS011;49026;52.600;4.694;2022-09-24T03:12:50;12.93;;;2.22;;
62724;SDS011;49026;52.600;4.694;2022-09-24T03:15:16;11.40;;;1.90;;
62724;SDS011;49026;52.600;4.694;2022-09-24T03:17:47;7.25;;;1.77;;
62724;SDS011;49026;52.600;4.694;2022-09-24T03:20:12;12.93;;;1.83;;
62724;SDS011;49026;52.600;4.694;2022-09-24T03:22:38;11.32;;;2.17;;
62724;SDS011;49026;52.600;4.694;2022-09-24T03:25:03;9.05;;;1.63;;
62724;SDS011;49026;52.600;4.694;2022-09-24T03:27:31;8.57;;;1.65;;
62724;SDS011;49026;52.600;4.694;2022-09-24T03:29:56;13.27;;;1.90;;
62724;SDS011;49026;52.600;4.694;2022-09-24T03:32:40;10.02;;;2.28;;
62724;SDS011;49026;52.600;4.694;2022-09-24T03:35:06;19.35;;;2.67;;
62724;SDS011;49026;52.600;4.694;2022-09-24T03:37:37;15.13;;;2.00;;
62724;SDS011;49026;52.600;4.694;2022-09-24T03:40:03;13.98;;;2.00;;
62724;SDS011;49026;52.600;4.694;2022-09-24T03:42:30;9.90;;;2.00;;
62724;SDS011;49026;52.600;4.694;2022-09-24T03:44:57;10.75;;;1.67;;
62724;SDS011;49026;52.600;4.694;2022-09-24T03:47:26;8.15;;;2.28;;
62724;SDS011;49026;52.600;4.694;2022-09-24T03:49:53;5.82;;;1.50;;
62724;SDS011;49026;52.600;4.694;2022-09-24T03:52:18;11.88;;;1.75;;
62724;SDS011;49026;52.600;4.694;2022-09-24T03:54:43;8.95;;;1.58;;
62724;SDS011;49026;52.600;4.694;2022-09-24T03:57:09;8.65;;;2.60;;
62724;SDS011;49026;52.600;4.694;2022-09-24T03:59:39;10.85;;;2.30;;
62724;SDS011;49026;52.600;4.694;2022-09-24T04:02:08;7.47;;;1.40;;
62724;SDS011;49026;52.600;4.694;2022-09-24T04:04:34;12.25;;;1.90;;
62724;SDS011;49026;52.600;4.694;2022-09-24T04:06:59;15.15;;;2.20;;
62724;SDS011;49026;52.600;4.694;2022-09-24T04:09:24;9.95;;;1.80;;
62724;SDS011;49026;52.600;4.694;2022-09-24T04:11:53;14.68;;;2.33;;
62724;SDS011;49026;52.600;4.694;2022-09-24T04:14:18;11.68;;;1.65;;
62724;SDS011;49026;52.600;4.694;2022-09-24T04:16:47;11.90;;;2.35;;
62724;SDS011;49026;52.600;4.694;2022-09-24T04:19:12;8.48;;;2.08;;
62724;SDS011;49026;52.600;4.694;2022-09-24T04:21:41;8.85;;;1.92;;
62724;SDS011;49026;52.600;4.694;2022-09-24T04:24:07;9.70;;;1.63;;
62724;SDS011;49026;52.600;4.694;2022-09-24T04:26:35;10.85;;;1.92;;
62724;SDS011;49026;52.600;4.694;2022-09-24T04:29:03;15.77;;;2.20;;
62724;SDS011;49026;52.600;4.694;2022-09-24T04:31:29;10.20;;;2.33;;
62724;SDS011;49026;52.600;4.694;2022-09-24T04:33:57;11.93;;;2.38;;
62724;SDS011;49026;52.600;4.694;2022-09-24T04:36:23;6.95;;;1.63;;
62724;SDS011;49026;52.600;4.694;2022-09-24T04:38:48;9.98;;;2.08;;
62724;SDS011;49026;52.600;4.694;2022-09-24T04:41:14;9.32;;;2.08;;
62724;SDS011;49026;52.600;4.694;2022-09-24T04:43:42;13.27;;;1.80;;
62724;SDS011;49026;52.600;4.694;2022-09-24T04:46:11;10.95;;;2.33;;
62724;SDS011;49026;52.600;4.694;2022-09-24T04:48:39;14.65;;;2.13;;
62724;SDS011;49026;52.600;4.694;2022-09-24T04:51:05;12.70;;;2.00;;
62724;SDS011;49026;52.600;4.694;2022-09-24T04:53:32;12.48;;;2.20;;
62724;SDS011;49026;52.600;4.694;2022-09-24T04:56:02;9.88;;;2.28;;
62724;SDS011;49026;52.600;4.694;2022-09-24T04:58:29;14.50;;;1.90;;
62724;SDS011;49026;52.600;4.694;2022-09-24T05:00:59;13.57;;;2.10;;
62724;SDS011;49026;52.600;4.694;2022-09-24T05:03:27;8.52;;;1.58;;
62724;SDS011;49026;52.600;4.694;2022-09-24T05:05:53;10.23;;;2.13;;
62724;SDS011;49026;52.600;4.694;2022-09-24T05:08:20;23.05;;;2.13;;
62724;SDS011;49026;52.600;4.694;2022-09-24T05:10:47;14.48;;;2.83;;
62724;SDS011;49026;52.600;4.694;2022-09-24T05:13:13;5.57;;;1.40;;
62724;SDS011;49026;52.600;4.694;2022-09-24T05:15:38;14.15;;;1.83;;
62724;SDS011;49026;52.600;4.694;2022-09-24T05:18:06;12.27;;;2.22;;
62724;SDS011;49026;52.600;4.694;2022-09-24T05:20:31;11.52;;;2.10;;
62724;SDS011;49026;52.600;4.694;2022-09-24T05:22:57;9.90;;;1.50;;
62724;SDS011;49026;52.600;4.694;2022-09-24T05:25:24;14.85;;;1.80;;
62724;SDS011;49026;52.600;4.694;2022-09-24T05:27:51;8.38;;;1.45;;
62724;SDS011;49026;52.600;4.694;2022-09-24T05:30:18;10.25;;;1.70;;
62724;SDS011;49026;52.600;4.694;2022-09-24T05:32:47;12.40;;;1.55;;
62724;SDS011;49026;52.600;4.694;2022-09-24T05:35:16;9.35;;;1.48;;
62724;SDS011;49026;52.600;4.694;2022-09-24T05:37:44;11.25;;;1.70;;
62724;SDS011;49026;52.600;4.694;2022-09-24T05:40:11;13.35;;;2.08;;
62724;SDS011;49026;52.600;4.694;2022-09-24T05:43:02;11.55;;;1.25;;
62724;SDS011;49026;52.600;4.694;2022-09-24T05:45:30;8.45;;;1.50;;
62724;SDS011;49026;52.600;4.694;2022-09-24T05:47:56;12.10;;;1.60;;
62724;SDS011;49026;52.600;4.694;2022-09-24T05:50:23;11.70;;;1.85;;
62724;SDS011;49026;52.600;4.694;2022-09-24T05:52:49;16.48;;;2.47;;
62724;SDS011;49026;52.600;4.694;2022-09-24T05:55:14;18.20;;;1.77;;
62724;SDS011;49026;52.600;4.694;2022-09-24T05:57:39;11.07;;;2.10;;
62724;SDS011;49026;52.600;4.694;2022-09-24T06:00:05;15.70;;;2.00;;
62724;SDS011;49026;52.600;4.694;2022-09-24T06:02:31;16.23;;;2.40;;
62724;SDS011;49026;52.600;4.694;2022-09-24T06:04:56;12.40;;;1.75;;
62724;SDS011;49026;52.600;4.694;2022-09-24T06:07:24;17.60;;;1.90;;
62724;SDS011;49026;52.600;4.694;2022-09-24T06:09:49;11.88;;;2.00;;
62724;SDS011;49026;52.600;4.694;2022-09-24T06:12:15;13.80;;;1.80;;
62724;SDS011;49026;52.600;4.694;2022-09-24T06:14:44;21.83;;;2.00;;
62724;SDS011;49026;52.600;4.694;2022-09-24T06:17:11;24.80;;;2.13;;
62724;SDS011;49026;52.600;4.694;2022-09-24T06:19:36;8.65;;;1.50;;
62724;SDS011;49026;52.600;4.694;2022-09-24T06:22:03;11.70;;;1.80;;
62724;SDS011;49026;52.600;4.694;2022-09-24T06:24:28;17.40;;;2.40;;
62724;SDS011;49026;52.600;4.694;2022-09-24T06:26:53;16.98;;;2.42;;
62724;SDS011;49026;52.600;4.694;2022-09-24T06:29:19;18.02;;;2.15;;
62724;SDS011;49026;52.600;4.694;2022-09-24T06:31:44;17.60;;;2.35;;
62724;SDS011;49026;52.600;4.694;2022-09-24T06:34:11;8.70;;;1.40;;
62724;SDS011;49026;52.600;4.694;2022-09-24T06:36:36;11.07;;;2.03;;
62724;SDS011;49026;52.600;4.694;2022-09-24T06:39:02;23.08;;;2.33;;
62724;SDS011;49026;52.600;4.694;2022-09-24T06:41:27;10.82;;;1.52;;
62724;SDS011;49026;52.600;4.694;2022-09-24T06:43:55;14.98;;;1.75;;
62724;SDS011;49026;52.600;4.694;2022-09-24T06:46:21;8.93;;;1.67;;
62724;SDS011;49026;52.600;4.694;2022-09-24T06:48:50;15.13;;;1.80;;
62724;SDS011;49026;52.600;4.694;2022-09-24T06:51:15;7.40;;;1.70;;
62724;SDS011;49026;52.600;4.694;2022-09-24T06:53:41;13.63;;;2.60;;
62724;SDS011;49026;52.600;4.694;2022-09-24T06:56:06;14.45;;;2.00;;
62724;SDS011;49026;52.600;4.694;2022-09-24T06:58:31;7.55;;;1.27;;
62724;SDS011;49026;52.600;4.694;2022-09-24T07:00:58;8.10;;;1.40;;
62724;SDS011;49026;52.600;4.694;2022-09-24T07:03:27;10.05;;;1.95;;
62724;SDS011;49026;52.600;4.694;2022-09-24T07:05:54;10.13;;;1.50;;
62724;SDS011;49026;52.600;4.694;2022-09-24T07:08:20;7.13;;;1.38;;
62724;SDS011;49026;52.600;4.694;2022-09-24T07:10:46;15.98;;;1.83;;
62724;SDS011;49026;52.600;4.694;2022-09-24T07:13:13;7.75;;;1.17;;
62724;SDS011;49026;52.600;4.694;2022-09-24T07:15:40;11.52;;;1.58;;
62724;SDS011;49026;52.600;4.694;2022-09-24T07:18:06;23.23;;;2.08;;
62724;SDS011;49026;52.600;4.694;2022-09-24T07:20:42;7.30;;;1.50;;
62724;SDS011;49026;52.600;4.694;2022-09-24T07:23:08;13.10;;;1.75;;
62724;SDS011;49026;52.600;4.694;2022-09-24T07:25:39;8.38;;;1.60;;
62724;SDS011;49026;52.600;4.694;2022-09-24T07:28:05;8.02;;;1.40;;
62724;SDS011;49026;52.600;4.694;2022-09-24T07:30:38;8.75;;;1.50;;
62724;SDS011;49026;52.600;4.694;2022-09-24T07:33:04;7.50;;;1.30;;
62724;SDS011;49026;52.600;4.694;2022-09-24T07:35:31;8.00;;;1.23;;
62724;SDS011;49026;52.600;4.694;2022-09-24T07:38:00;5.82;;;0.98;;
62724;SDS011;49026;52.600;4.694;2022-09-24T07:40:28;15.50;;;1.70;;
62724;SDS011;49026;52.600;4.694;2022-09-24T07:42:54;3.05;;;1.10;;
62724;SDS011;49026;52.600;4.694;2022-09-24T07:45:20;12.57;;;2.03;;
62724;SDS011;49026;52.600;4.694;2022-09-24T07:47:46;7.30;;;1.48;;
62724;SDS011;49026;52.600;4.694;2022-09-24T07:50:12;5.00;;;0.65;;
62724;SDS011;49026;52.600;4.694;2022-09-24T07:52:37;6.57;;;1.10;;
62724;SDS011;49026;52.600;4.694;2022-09-24T07:55:03;13.75;;;1.77;;
62724;SDS011;49026;52.600;4.694;2022-09-24T07:57:29;7.78;;;1.00;;
62724;SDS011;49026;52.600;4.694;2022-09-24T07:59:54;3.70;;;0.95;;
62724;SDS011;49026;52.600;4.694;2022-09-24T08:02:22;5.88;;;1.10;;
62724;SDS011;49026;52.600;4.694;2022-09-24T08:04:49;5.50;;;0.95;;
62724;SDS011;49026;52.600;4.694;2022-09-24T08:07:14;5.35;;;0.80;;
62724;SDS011;49026;52.600;4.694;2022-09-24T08:09:39;13.25;;;2.38;;
62724;SDS011;49026;52.600;4.694;2022-09-24T08:12:07;5.38;;;1.00;;
62724;SDS011;49026;52.600;4.694;2022-09-24T08:14:34;8.93;;;1.10;;
62724;SDS011;49026;52.600;4.694;2022-09-24T08:16:59;6.30;;;0.95;;
62724;SDS011;49026;52.600;4.694;2022-09-24T08:19:25;7.10;;;1.50;;
62724;SDS011;49026;52.600;4.694;2022-09-24T08:21:54;8.45;;;1.85;;
62724;SDS011;49026;52.600;4.694;2022-09-24T08:24:21;11.60;;;1.60;;
62724;SDS011;49026;52.600;4.694;2022-09-24T08:26:46;6.07;;;1.15;;
62724;SDS011;49026;52.600;4.694;2022-09-24T08:29:15;7.00;;;1.10;;
62724;SDS011;49026;52.600;4.694;2022-09-24T08:31:43;9.93;;;1.20;;
62724;SDS011;49026;52.600;4.694;2022-09-24T08:34:08;5.38;;;0.90;;
62724;SDS011;49026;52.600;4.694;2022-09-24T08:36:34;16.58;;;1.75;;
62724;SDS011;49026;52.600;4.694;2022-09-24T08:39:01;10.90;;;1.13;;
62724;SDS011;49026;52.600;4.694;2022-09-24T08:41:40;6.15;;;1.42;;
62724;SDS011;49026;52.600;4.694;2022-09-24T08:50:28;5.00;;;1.02;;
62724;SDS011;49026;52.600;4.694;2022-09-24T08:53:05;7.93;;;1.05;;
62724;SDS011;49026;52.600;4.694;2022-09-24T08:55:48;6.50;;;0.90;;
62724;SDS011;49026;52.600;4.694;2022-09-24T09:06:10;5.05;;;1.20;;
62724;SDS011;49026;52.600;4.694;2022-09-24T09:09:04;8.27;;;1.50;;
62724;SDS011;49026;52.600;4.694;2022-09-24T09:11:36;8.02;;;0.95;;
62724;SDS011;49026;52.600;4.694;2022-09-24T09:14:09;8.85;;;1.05;;
62724;SDS011;49026;52.600;4.694;2022-09-24T09:16:41;6.72;;;1.00;;
62724;SDS011;49026;52.600;4.694;2022-09-24T09:19:12;10.32;;;1.42;;
62724;SDS011;49026;52.600;4.694;2022-09-24T09:21:40;6.03;;;1.40;;
62724;SDS011;49026;52.600;4.694;2022-09-24T09:24:20;7.85;;;2.17;;
62724;SDS011;49026;52.600;4.694;2022-09-24T09:26:51;10.65;;;1.63;;
62724;SDS011;49026;52.600;4.694;2022-09-24T09:29:19;7.95;;;1.08;;
62724;SDS011;49026;52.600;4.694;2022-09-24T09:39:58;11.48;;;1.33;;
62724;SDS011;49026;52.600;4.694;2022-09-24T09:42:35;5.53;;;1.20;;
62724;SDS011;49026;52.600;4.694;2022-09-24T09:45:14;9.82;;;1.52;;
62724;SDS011;49026;52.600;4.694;2022-09-24T09:47:49;8.75;;;1.15;;
62724;SDS011;49026;52.600;4.694;2022-09-24T09:52:57;6.53;;;0.80;;
62724;SDS011;49026;52.600;4.694;2022-09-24T09:55:26;8.85;;;1.77;;
62724;SDS011;49026;52.600;4.694;2022-09-24T09:58:29;6.47;;;1.08;;
62724;SDS011;49026;52.600;4.694;2022-09-24T10:00:48;8.52;;;1.00;;
62724;SDS011;49026;52.600;4.694;2022-09-24T10:03:26;6.65;;;1.05;;
62724;SDS011;49026;52.600;4.694;2022-09-24T10:05:55;7.75;;;1.17;;
62724;SDS011;49026;52.600;4.694;2022-09-24T10:08:25;16.70;;;2.22;;
62724;SDS011;49026;52.600;4.694;2022-09-24T10:10:56;9.90;;;1.52;;
62724;SDS011;49026;52.600;4.694;2022-09-24T10:13:27;9.32;;;1.05;;
62724;SDS011;49026;52.600;4.694;2022-09-24T10:15:54;10.85;;;1.52;;
62724;SDS011;49026;52.600;4.694;2022-09-24T10:20:54;8.35;;;1.40;;
62724;SDS011;49026;52.600;4.694;2022-09-24T10:23:25;6.50;;;1.05;;
62724;SDS011;49026;52.600;4.694;2022-09-24T10:26:06;9.75;;;1.20;;
62724;SDS011;49026;52.600;4.694;2022-09-24T10:28:33;8.43;;;1.95;;
62724;SDS011;49026;52.600;4.694;2022-09-24T10:31:21;9.98;;;1.17;;
62724;SDS011;49026;52.600;4.694;2022-09-24T10:33:51;6.53;;;1.10;;
62724;SDS011;49026;52.600;4.694;2022-09-24T10:39:00;7.32;;;1.17;;
62724;SDS011;49026;52.600;4.694;2022-09-24T10:41:31;7.22;;;1.15;;
62724;SDS011;49026;52.600;4.694;2022-09-24T10:43:59;8.23;;;1.15;;
62724;SDS011;49026;52.600;4.694;2022-09-24T10:54:42;6.75;;;1.15;;
62724;SDS011;49026;52.600;4.694;2022-09-24T11:00:00;5.00;;;0.95;;
62724;SDS011;49026;52.600;4.694;2022-09-24T11:05:34;9.07;;;1.10;;
62724;SDS011;49026;52.600;4.694;2022-09-24T11:11:05;3.97;;;1.10;;
62724;SDS011;49026;52.600;4.694;2022-09-24T11:16:41;4.80;;;0.90;;
62724;SDS011;49026;52.600;4.694;2022-09-24T11:27:07;7.00;;;1.52;;
62724;SDS011;49026;52.600;4.694;2022-09-24T11:32:33;6.80;;;1.52;;
62724;SDS011;49026;52.600;4.694;2022-09-24T11:38:15;4.40;;;1.00;;
62724;SDS011;49026;52.600;4.694;2022-09-24T11:41:15;7.95;;;1.45;;
62724;SDS011;49026;52.600;4.694;2022-09-24T11:46:53;6.25;;;1.00;;
62724;SDS011;49026;52.600;4.694;2022-09-24T11:51:54;6.88;;;0.88;;
62724;SDS011;49026;52.600;4.694;2022-09-24T11:57:42;9.52;;;1.23;;
62724;SDS011;49026;52.600;4.694;2022-09-24T12:00:13;3.53;;;0.80;;
62724;SDS011;49026;52.600;4.694;2022-09-24T12:05:32;8.15;;;1.40;;
62724;SDS011;49026;52.600;4.694;2022-09-24T12:08:12;3.67;;;1.10;;
62724;SDS011;49026;52.600;4.694;2022-09-24T12:10:46;5.88;;;1.13;;
62724;SDS011;49026;52.600;4.694;2022-09-24T12:15:55;10.20;;;1.30;;
62724;SDS011;49026;52.600;4.694;2022-09-24T12:18:41;5.68;;;0.80;;
62724;SDS011;49026;52.600;4.694;2022-09-24T12:21:16;5.28;;;1.17;;
62724;SDS011;49026;52.600;4.694;2022-09-24T12:23:48;5.25;;;0.75;;
62724;SDS011;49026;52.600;4.694;2022-09-24T12:26:15;5.78;;;1.17;;
62724;SDS011;49026;52.600;4.694;2022-09-24T12:37:40;9.00;;;1.08;;
62724;SDS011;49026;52.600;4.694;2022-09-24T12:42:55;6.13;;;1.15;;
62724;SDS011;49026;52.600;4.694;2022-09-24T12:45:25;5.82;;;1.33;;
62724;SDS011;49026;52.600;4.694;2022-09-24T12:47:52;5.10;;;1.17;;
62724;SDS011;49026;52.600;4.694;2022-09-24T12:50:29;5.03;;;1.23;;
62724;SDS011;49026;52.600;4.694;2022-09-24T12:53:02;4.53;;;1.13;;
62724;SDS011;49026;52.600;4.694;2022-09-24T12:55:46;7.38;;;0.98;;
62724;SDS011;49026;52.600;4.694;2022-09-24T12:58:34;4.68;;;0.80;;
62724;SDS011;49026;52.600;4.694;2022-09-24T13:03:59;4.50;;;0.80;;
62724;SDS011;49026;52.600;4.694;2022-09-24T13:06:49;3.17;;;0.68;;
62724;SDS011;49026;52.600;4.694;2022-09-24T13:14:50;5.30;;;0.82;;
62724;SDS011;49026;52.600;4.694;2022-09-24T13:17:24;2.50;;;0.60;;
62724;SDS011;49026;52.600;4.694;2022-09-24T13:19:54;2.90;;;0.80;;
62724;SDS011;49026;52.600;4.694;2022-09-24T13:35:34;6.07;;;1.05;;
62724;SDS011;49026;52.600;4.694;2022-09-24T13:40:48;3.90;;;0.90;;
62724;SDS011;49026;52.600;4.694;2022-09-24T13:46:14;7.90;;;1.10;;
62724;SDS011;49026;52.600;4.694;2022-09-24T13:48:48;4.65;;;1.20;;
62724;SDS011;49026;52.600;4.694;2022-09-24T13:51:15;5.50;;;1.00;;
62724;SDS011;49026;52.600;4.694;2022-09-24T13:53:43;5.55;;;1.38;;
62724;SDS011;49026;52.600;4.694;2022-09-24T13:56:20;7.20;;;1.00;;
62724;SDS011;49026;52.600;4.694;2022-09-24T13:58:48;9.60;;;1.30;;
62724;SDS011;49026;52.600;4.694;2022-09-24T14:03:50;3.85;;;0.80;;
62724;SDS011;49026;52.600;4.694;2022-09-24T14:09:13;6.10;;;1.20;;
62724;SDS011;49026;52.600;4.694;2022-09-24T14:11:59;3.40;;;0.65;;
62724;SDS011;49026;52.600;4.694;2022-09-24T14:14:51;3.67;;;1.08;;
62724;SDS011;49026;52.600;4.694;2022-09-24T14:17:19;8.20;;;0.70;;
62724;SDS011;49026;52.600;4.694;2022-09-24T14:19:53;6.22;;;0.80;;
62724;SDS011;49026;52.600;4.694;2022-09-24T14:22:23;4.70;;;0.90;;
62724;SDS011;49026;52.600;4.694;2022-09-24T14:27:20;5.50;;;0.80;;
62724;SDS011;49026;52.600;4.694;2022-09-24T14:30:16;5.30;;;0.90;;
62724;SDS011;49026;52.600;4.694;2022-09-24T14:32:42;2.85;;;1.10;;
62724;SDS011;49026;52.600;4.694;2022-09-24T14:37:50;9.20;;;1.00;;
62724;SDS011;49026;52.600;4.694;2022-09-24T14:40:20;4.07;;;0.77;;
62724;SDS011;49026;52.600;4.694;2022-09-24T14:42:47;3.28;;;0.80;;
62724;SDS011;49026;52.600;4.694;2022-09-24T14:45:18;5.95;;;0.93;;
62724;SDS011;49026;52.600;4.694;2022-09-24T14:47:58;4.57;;;0.75;;
62724;SDS011;49026;52.600;4.694;2022-09-24T14:50:40;4.35;;;0.70;;
62724;SDS011;49026;52.600;4.694;2022-09-24T14:56:05;5.10;;;0.80;;
62724;SDS011;49026;52.600;4.694;2022-09-24T14:58:51;3.17;;;0.60;;
62724;SDS011;49026;52.600;4.694;2022-09-24T15:01:17;6.70;;;1.33;;
62724;SDS011;49026;52.600;4.694;2022-09-24T15:03:51;5.45;;;1.20;;
62724;SDS011;49026;52.600;4.694;2022-09-24T15:06:29;3.63;;;1.00;;
62724;SDS011;49026;52.600;4.694;2022-09-24T15:09:06;5.20;;;1.02;;
62724;SDS011;49026;52.600;4.694;2022-09-24T15:11:49;4.05;;;0.80;;
62724;SDS011;49026;52.600;4.694;2022-09-24T15:16:42;8.00;;;1.33;;
62724;SDS011;49026;52.600;4.694;2022-09-24T15:19:21;2.65;;;0.52;;
62724;SDS011;49026;52.600;4.694;2022-09-24T15:21:50;1.60;;;0.40;;
62724;SDS011;49026;52.600;4.694;2022-09-24T15:24:17;4.25;;;1.10;;
62724;SDS011;49026;52.600;4.694;2022-09-24T15:26:47;8.38;;;1.08;;
62724;SDS011;49026;52.600;4.694;2022-09-24T15:29:23;7.85;;;0.85;;
62724;SDS011;49026;52.600;4.694;2022-09-24T15:31:50;8.65;;;0.85;;
62724;SDS011;49026;52.600;4.694;2022-09-24T15:34:18;3.83;;;1.15;;
62724;SDS011;49026;52.600;4.694;2022-09-24T15:36:45;4.32;;;0.80;;
62724;SDS011;49026;52.600;4.694;2022-09-24T15:39:22;6.53;;;1.42;;
62724;SDS011;49026;52.600;4.694;2022-09-24T15:41:50;4.88;;;1.17;;
62724;SDS011;49026;52.600;4.694;2022-09-24T15:44:20;4.30;;;1.00;;
62724;SDS011;49026;52.600;4.694;2022-09-24T15:46:48;8.68;;;0.82;;
62724;SDS011;49026;52.600;4.694;2022-09-24T15:49:15;7.63;;;0.95;;
62724;SDS011;49026;52.600;4.694;2022-09-24T15:51:58;5.80;;;0.90;;
62724;SDS011;49026;52.600;4.694;2022-09-24T15:54:27;4.97;;;1.05;;
62724;SDS011;49026;52.600;4.694;2022-09-24T15:56:53;3.35;;;0.80;;
62724;SDS011;49026;52.600;4.694;2022-09-24T15:59:19;5.75;;;1.15;;
62724;SDS011;49026;52.600;4.694;2022-09-24T16:01:46;1.73;;;0.77;;
62724;SDS011;49026;52.600;4.694;2022-09-24T16:04:14;5.70;;;1.15;;
62724;SDS011;49026;52.600;4.694;2022-09-24T16:06:39;7.95;;;1.20;;
62724;SDS011;49026;52.600;4.694;2022-09-24T16:09:07;3.13;;;1.02;;
62724;SDS011;49026;52.600;4.694;2022-09-24T16:11:32;4.63;;;1.40;;
62724;SDS011;49026;52.600;4.694;2022-09-24T16:13:58;6.00;;;1.10;;
62724;SDS011;49026;52.600;4.694;2022-09-24T16:16:24;5.80;;;1.35;;
62724;SDS011;49026;52.600;4.694;2022-09-24T16:18:49;6.72;;;1.15;;
62724;SDS011;49026;52.600;4.694;2022-09-24T16:21:14;5.53;;;0.95;;
62724;SDS011;49026;52.600;4.694;2022-09-24T16:23:42;5.18;;;1.20;;
62724;SDS011;49026;52.600;4.694;2022-09-24T16:26:09;2.78;;;0.73;;
62724;SDS011;49026;52.600;4.694;2022-09-24T16:28:35;5.90;;;1.10;;
62724;SDS011;49026;52.600;4.694;2022-09-24T16:31:04;5.50;;;1.00;;
62724;SDS011;49026;52.600;4.694;2022-09-24T16:33:31;3.58;;;1.00;;
62724;SDS011;49026;52.600;4.694;2022-09-24T16:36:02;13.70;;;1.27;;
62724;SDS011;49026;52.600;4.694;2022-09-24T16:38:28;8.60;;;0.95;;
62724;SDS011;49026;52.600;4.694;2022-09-24T16:41:00;6.57;;;0.88;;
62724;SDS011;49026;52.600;4.694;2022-09-24T16:43:26;8.07;;;1.10;;
62724;SDS011;49026;52.600;4.694;2022-09-24T16:45:51;8.23;;;1.25;;
62724;SDS011;49026;52.600;4.694;2022-09-24T16:48:33;7.25;;;1.13;;
62724;SDS011;49026;52.600;4.694;2022-09-24T16:51:07;6.07;;;2.60;;
62724;SDS011;49026;52.600;4.694;2022-09-24T16:53:34;9.48;;;1.65;;
62724;SDS011;49026;52.600;4.694;2022-09-24T16:56:08;6.53;;;1.02;;
62724;SDS011;49026;52.600;4.694;2022-09-24T16:58:37;6.00;;;1.02;;
62724;SDS011;49026;52.600;4.694;2022-09-24T17:01:08;6.95;;;1.08;;
62724;SDS011;49026;52.600;4.694;2022-09-24T17:03:35;4.32;;;0.95;;
62724;SDS011;49026;52.600;4.694;2022-09-24T17:06:01;6.60;;;1.30;;
62724;SDS011;49026;52.600;4.694;2022-09-24T17:08:29;10.23;;;1.13;;
62724;SDS011;49026;52.600;4.694;2022-09-24T17:11:33;7.18;;;1.42;;
62724;SDS011;49026;52.600;4.694;2022-09-24T17:14:03;7.47;;;1.13;;
62724;SDS011;49026;52.600;4.694;2022-09-24T17:16:31;9.82;;;1.15;;
62724;SDS011;49026;52.600;4.694;2022-09-24T17:18:57;8.38;;;1.58;;